Time;durP1;ratioP1;P1;durP2;ratioP2;P2;SDS_P1;SDS_P2;PMS_P1;PMS_P2;Temp;Humidity;BMP_temperature;BMP_pressure;BME280_temperature;BME280_humidity;BME280_pressure;Samples;Min_cycle;Max_cycle;Signal;HPM_P1;HPM_P2
2022/03/15 00:01:17;;;;;;;5.73;4.73;;;;;;;;;;5090220;28;20264;-73
2022/03/15 00:03:44;;;;;;;6.97;4.83;;;;;;;;;;5082668;28;20208;-74
2022/03/15 00:06:11;;;;;;;6.50;4.93;;;;;;;;;;5080317;28;20224;-74
2022/03/15 00:08:39;;;;;;;6.63;4.73;;;;;;;;;;5079732;28;20201;-74
2022/03/15 00:11:06;;;;;;;7.17;4.97;;;;;;;;;;5080051;28;20297;-74
2022/03/15 00:13:37;;;;;;;6.90;4.27;;;;;;;;;;5078587;28;20208;-74
2022/03/15 00:16:04;;;;;;;8.13;4.93;;;;;;;;;;5078424;28;20216;-74
2022/03/15 00:18:33;;;;;;;6.13;4.70;;;;;;;;;;5077565;28;20311;-74
2022/03/15 00:21:01;;;;;;;7.73;5.93;;;;;;;;;;5078034;28;20208;-73
2022/03/15 00:23:28;;;;;;;8.20;5.47;;;;;;;;;;5077373;28;20200;-74
2022/03/15 00:25:55;;;;;;;7.67;5.20;;;;;;;;;;5076241;28;20259;-73
2022/03/15 00:28:23;;;;;;;6.57;4.63;;;;;;;;;;5075560;28;20296;-74
2022/03/15 00:30:50;;;;;;;5.30;4.70;;;;;;;;;;5075342;28;20220;-74
2022/03/15 00:33:18;;;;;;;6.77;4.97;;;;;;;;;;5074309;28;20254;-74
2022/03/15 00:35:47;;;;;;;10.70;5.20;;;;;;;;;;5074321;28;20260;-73
2022/03/15 00:38:14;;;;;;;7.43;5.30;;;;;;;;;;5073000;28;20316;-74
2022/03/15 00:40:42;;;;;;;9.47;5.30;;;;;;;;;;5073799;28;20243;-74
2022/03/15 00:43:09;;;;;;;7.23;5.03;;;;;;;;;;5073786;28;20268;-74
2022/03/15 00:45:36;;;;;;;7.63;5.20;;;;;;;;;;5073531;28;20220;-74
2022/03/15 00:48:03;;;;;;;9.03;5.63;;;;;;;;;;5072926;28;20286;-74
2022/03/15 00:50:32;;;;;;;8.40;5.43;;;;;;;;;;5073583;28;20200;-73
2022/03/15 00:53:03;;;;;;;7.93;5.30;;;;;;;;;;5073997;28;20205;-73
2022/03/15 00:55:30;;;;;;;6.27;4.70;;;;;;;;;;5073433;28;20224;-73
2022/03/15 00:57:57;;;;;;;8.90;5.60;;;;;;;;;;5073095;28;20311;-74
2022/03/15 01:00:31;;;;;;;8.53;5.73;;;;;;;;;;5073301;28;20283;-73
2022/03/15 01:02:58;;;;;;;8.23;5.97;;;;;;;;;;5073703;28;20236;-73
2022/03/15 01:05:25;;;;;;;8.93;5.70;;;;;;;;;;5073347;28;20319;-73
2022/03/15 01:07:52;;;;;;;7.00;5.70;;;;;;;;;;5072490;28;20292;-74
2022/03/15 01:10:21;;;;;;;12.10;5.80;;;;;;;;;;5073242;28;20207;-73
2022/03/15 01:12:48;;;;;;;11.47;5.90;;;;;;;;;;5073188;28;20200;-74
2022/03/15 01:15:16;;;;;;;8.27;5.47;;;;;;;;;;5073231;28;20216;-73
2022/03/15 01:17:43;;;;;;;6.57;5.03;;;;;;;;;;5072238;28;20221;-73
2022/03/15 01:20:11;;;;;;;6.23;4.87;;;;;;;;;;5073055;28;20382;-74
2022/03/15 01:22:39;;;;;;;6.10;4.90;;;;;;;;;;5072894;28;20280;-74
2022/03/15 01:25:06;;;;;;;7.40;5.10;;;;;;;;;;5072676;28;20201;-74
2022/03/15 01:27:36;;;;;;;6.13;5.10;;;;;;;;;;5071882;28;20299;-73
2022/03/15 01:30:03;;;;;;;7.20;5.00;;;;;;;;;;5069678;28;20296;-73
2022/03/15 01:32:30;;;;;;;5.63;4.60;;;;;;;;;;5072532;28;20208;-74
2022/03/15 01:34:57;;;;;;;6.20;4.83;;;;;;;;;;5072597;28;20270;-74
2022/03/15 01:37:24;;;;;;;7.63;5.10;;;;;;;;;;5071315;28;20224;-74
2022/03/15 01:39:52;;;;;;;7.50;5.00;;;;;;;;;;5072577;28;20227;-74
2022/03/15 01:42:19;;;;;;;7.40;6.50;;;;;;;;;;5072482;28;20212;-74
2022/03/15 01:44:49;;;;;;;7.20;5.57;;;;;;;;;;5072668;28;20212;-73
2022/03/15 01:47:17;;;;;;;6.20;5.20;;;;;;;;;;5071532;28;20228;-74
2022/03/15 01:49:44;;;;;;;7.70;5.73;;;;;;;;;;5072105;28;20204;-74
2022/03/15 01:52:12;;;;;;;7.80;5.30;;;;;;;;;;5072318;28;20207;-74
2022/03/15 01:54:40;;;;;;;6.23;5.63;;;;;;;;;;5072475;28;20216;-74
2022/03/15 01:57:07;;;;;;;8.60;5.50;;;;;;;;;;5071407;28;20216;-74
2022/03/15 01:59:35;;;;;;;7.83;5.17;;;;;;;;;;5072192;28;20303;-74
2022/03/15 02:02:04;;;;;;;6.23;5.30;;;;;;;;;;5071598;28;20201;-74
2022/03/15 02:04:34;;;;;;;7.70;5.47;;;;;;;;;;5054384;28;20298;-74
2022/03/15 02:07:02;;;;;;;6.27;5.10;;;;;;;;;;5070883;28;20789;-74
2022/03/15 02:09:29;;;;;;;9.53;5.57;;;;;;;;;;5071749;28;20750;-74
2022/03/15 02:11:57;;;;;;;8.00;5.97;;;;;;;;;;5071951;28;20215;-73
2022/03/15 02:14:27;;;;;;;8.17;5.70;;;;;;;;;;5072037;28;20205;-73
2022/03/15 02:16:55;;;;;;;9.10;6.00;;;;;;;;;;5070879;28;20227;-73
2022/03/15 02:19:24;;;;;;;6.60;5.73;;;;;;;;;;5071458;28;20350;-73
2022/03/15 02:21:52;;;;;;;10.20;6.07;;;;;;;;;;5071522;28;20291;-73
2022/03/15 02:24:20;;;;;;;8.33;5.60;;;;;;;;;;5071890;28;20232;-73
2022/03/15 02:26:47;;;;;;;7.43;5.13;;;;;;;;;;5070798;28;20231;-73
2022/03/15 02:29:14;;;;;;;5.83;4.80;;;;;;;;;;5071427;28;20254;-74
2022/03/15 02:31:42;;;;;;;8.50;5.17;;;;;;;;;;5071762;28;20285;-74
2022/03/15 02:34:10;;;;;;;6.60;4.90;;;;;;;;;;5071099;28;20204;-74
2022/03/15 02:36:37;;;;;;;7.53;5.23;;;;;;;;;;5070157;28;20224;-73
2022/03/15 02:39:06;;;;;;;7.20;5.63;;;;;;;;;;5070845;28;20287;-73
2022/03/15 02:41:33;;;;;;;5.73;5.13;;;;;;;;;;5071391;28;20196;-74
2022/03/15 02:44:00;;;;;;;5.63;5.03;;;;;;;;;;5071003;28;20287;-74
2022/03/15 02:46:31;;;;;;;6.83;5.00;;;;;;;;;;5071078;28;20228;-73
2022/03/15 02:48:58;;;;;;;7.83;4.90;;;;;;;;;;5070074;28;20193;-74
2022/03/15 02:51:25;;;;;;;6.00;5.27;;;;;;;;;;5071404;28;20219;-74
2022/03/15 02:53:54;;;;;;;5.20;4.70;;;;;;;;;;5070775;28;20218;-74
2022/03/15 02:56:23;;;;;;;6.60;5.00;;;;;;;;;;5071020;28;20235;-73
2022/03/15 02:58:50;;;;;;;6.93;4.80;;;;;;;;;;5069975;28;20216;-73
2022/03/15 03:01:20;;;;;;;7.00;5.00;;;;;;;;;;5070862;28;20251;-74
2022/03/15 03:03:47;;;;;;;6.60;5.00;;;;;;;;;;5068333;28;20219;-74
2022/03/15 03:06:14;;;;;;;5.87;4.97;;;;;;;;;;5068216;28;20224;-73
2022/03/15 03:08:42;;;;;;;7.57;5.43;;;;;;;;;;5070202;28;20203;-73
2022/03/15 03:11:09;;;;;;;10.90;5.30;;;;;;;;;;5070553;28;20224;-73
2022/03/15 03:13:42;;;;;;;6.37;4.90;;;;;;;;;;5071199;28;20315;-74
2022/03/15 03:16:10;;;;;;;6.90;4.83;;;;;;;;;;5071186;28;20233;-74
2022/03/15 03:18:37;;;;;;;5.93;4.70;;;;;;;;;;5063606;28;20223;-74
2022/03/15 03:21:05;;;;;;;9.87;5.17;;;;;;;;;;5067734;28;20200;-74
2022/03/15 03:23:34;;;;;;;6.00;4.57;;;;;;;;;;5067914;28;20232;-74
2022/03/15 03:26:02;;;;;;;6.43;4.57;;;;;;;;;;5066731;28;20296;-74
2022/03/15 03:28:33;;;;;;;9.37;5.20;;;;;;;;;;5087070;22;20243;-76
2022/03/15 03:31:03;;;;;;;5.87;4.30;;;;;;;;;;5070553;28;20193;-73
2022/03/15 03:33:30;;;;;;;8.50;5.33;;;;;;;;;;5070671;28;20197;-74
2022/03/15 03:35:57;;;;;;;8.67;4.67;;;;;;;;;;5071136;28;20287;-74
2022/03/15 03:38:24;;;;;;;10.60;5.27;;;;;;;;;;5057710;28;20288;-74
2022/03/15 03:40:52;;;;;;;6.77;5.07;;;;;;;;;;5050125;28;20288;-74
2022/03/15 03:43:20;;;;;;;5.83;4.80;;;;;;;;;;5050638;28;20208;-74
2022/03/15 03:45:47;;;;;;;6.83;4.60;;;;;;;;;;5050663;28;20201;-74
2022/03/15 03:48:15;;;;;;;8.53;4.63;;;;;;;;;;5051549;28;20229;-74
2022/03/15 03:50:43;;;;;;;6.80;4.60;;;;;;;;;;5052477;28;20199;-75
2022/03/15 03:53:11;;;;;;;9.07;4.80;;;;;;;;;;5053779;28;20284;-75
2022/03/15 03:55:38;;;;;;;6.93;4.97;;;;;;;;;;5050046;28;20283;-75
2022/03/15 03:58:05;;;;;;;5.83;4.70;;;;;;;;;;5050525;28;20308;-75
2022/03/15 04:00:32;;;;;;;6.30;4.77;;;;;;;;;;5051586;28;20281;-75
2022/03/15 04:03:00;;;;;;;8.10;4.57;;;;;;;;;;5048411;28;20251;-75
2022/03/15 04:05:30;;;;;;;9.77;5.40;;;;;;;;;;5052874;28;20202;-75
2022/03/15 04:07:59;;;;;;;6.50;4.97;;;;;;;;;;5049626;28;20217;-75
2022/03/15 04:10:30;;;;;;;10.93;5.20;;;;;;;;;;5050247;28;20205;-74
2022/03/15 04:12:57;;;;;;;5.23;4.73;;;;;;;;;;5049384;28;20201;-74
2022/03/15 04:15:24;;;;;;;8.13;5.40;;;;;;;;;;5053947;28;20228;-75
2022/03/15 04:17:52;;;;;;;5.77;5.17;;;;;;;;;;5053115;28;20282;-75
2022/03/15 04:20:22;;;;;;;5.50;4.37;;;;;;;;;;5053707;28;20255;-75
2022/03/15 04:22:50;;;;;;;7.17;4.50;;;;;;;;;;5053651;28;20209;-75
2022/03/15 04:25:19;;;;;;;7.67;5.10;;;;;;;;;;5053505;28;20198;-75
2022/03/15 04:27:46;;;;;;;8.83;5.17;;;;;;;;;;5051396;28;20237;-74
2022/03/15 04:30:14;;;;;;;7.83;5.23;;;;;;;;;;5053735;28;20323;-75
2022/03/15 04:32:41;;;;;;;6.67;5.30;;;;;;;;;;5053161;28;20293;-75
2022/03/15 04:35:08;;;;;;;7.80;5.13;;;;;;;;;;5053661;28;20287;-74
2022/03/15 04:37:36;;;;;;;7.70;5.60;;;;;;;;;;5051058;28;20217;-75
2022/03/15 04:40:04;;;;;;;7.93;5.03;;;;;;;;;;5053516;28;20201;-75
2022/03/15 04:42:32;;;;;;;8.83;5.40;;;;;;;;;;5052801;28;20212;-74
2022/03/15 04:44:59;;;;;;;5.77;4.53;;;;;;;;;;5053061;28;20213;-75
2022/03/15 04:47:26;;;;;;;7.27;4.97;;;;;;;;;;5052090;28;20226;-75
2022/03/15 04:49:53;;;;;;;6.43;5.00;;;;;;;;;;5052743;28;20229;-75
2022/03/15 04:52:20;;;;;;;8.83;5.63;;;;;;;;;;5052966;28;20244;-74
2022/03/15 04:54:47;;;;;;;9.53;5.10;;;;;;;;;;5052844;28;20209;-74
2022/03/15 04:57:16;;;;;;;9.87;5.90;;;;;;;;;;5049078;28;20223;-74
2022/03/15 04:59:43;;;;;;;8.53;5.30;;;;;;;;;;5050810;28;20220;-74
2022/03/15 05:02:10;;;;;;;7.03;5.00;;;;;;;;;;5050518;28;20250;-74
2022/03/15 05:04:37;;;;;;;7.97;4.83;;;;;;;;;;5051095;28;20203;-73
2022/03/15 05:07:05;;;;;;;6.77;5.27;;;;;;;;;;5051378;28;20289;-74
2022/03/15 05:09:32;;;;;;;9.70;5.40;;;;;;;;;;5049416;28;20244;-75
2022/03/15 05:11:59;;;;;;;8.87;6.10;;;;;;;;;;5044457;28;20289;-75
2022/03/15 05:14:27;;;;;;;9.93;5.07;;;;;;;;;;5047607;28;20268;-75
2022/03/15 05:16:55;;;;;;;8.27;5.50;;;;;;;;;;5049514;28;20263;-75
2022/03/15 05:19:22;;;;;;;9.20;5.50;;;;;;;;;;5047192;28;20335;-75
2022/03/15 05:21:49;;;;;;;9.63;5.80;;;;;;;;;;5047548;28;20292;-75
2022/03/15 05:24:16;;;;;;;6.83;5.40;;;;;;;;;;5047279;28;20197;-75
2022/03/15 05:26:44;;;;;;;9.63;5.90;;;;;;;;;;5048694;28;20204;-75
2022/03/15 05:29:12;;;;;;;5.57;5.00;;;;;;;;;;5051585;28;20320;-75
2022/03/15 05:31:40;;;;;;;6.43;5.30;;;;;;;;;;5051327;28;20213;-75
2022/03/15 05:34:07;;;;;;;5.27;4.60;;;;;;;;;;5051598;28;20291;-75
2022/03/15 05:36:35;;;;;;;7.47;4.77;;;;;;;;;;5051304;28;20288;-75
2022/03/15 05:39:02;;;;;;;7.97;5.77;;;;;;;;;;5052094;28;20241;-75
2022/03/15 05:41:29;;;;;;;7.30;4.70;;;;;;;;;;5051731;28;20292;-75
2022/03/15 05:43:56;;;;;;;5.93;4.60;;;;;;;;;;5052221;28;20296;-75
2022/03/15 05:46:24;;;;;;;7.10;5.10;;;;;;;;;;5049842;28;20225;-75
2022/03/15 05:48:53;;;;;;;8.27;5.80;;;;;;;;;;5049909;28;20225;-75
2022/03/15 05:51:20;;;;;;;8.00;5.30;;;;;;;;;;5051897;28;20306;-75
2022/03/15 05:53:47;;;;;;;6.83;4.57;;;;;;;;;;5054515;28;20196;-77
2022/03/15 05:56:14;;;;;;;6.80;4.70;;;;;;;;;;5056206;28;20219;-77
2022/03/15 05:58:43;;;;;;;11.50;5.20;;;;;;;;;;5054369;28;20316;-75
2022/03/15 06:01:10;;;;;;;6.33;4.90;;;;;;;;;;5051097;28;20236;-74
2022/03/15 06:03:38;;;;;;;9.47;7.37;;;;;;;;;;5049854;28;20197;-75
2022/03/15 06:06:06;;;;;;;9.73;7.17;;;;;;;;;;5048655;28;20288;-75
2022/03/15 06:08:33;;;;;;;7.10;6.20;;;;;;;;;;5050033;28;20229;-74
2022/03/15 06:11:02;;;;;;;7.67;6.37;;;;;;;;;;5048554;28;20205;-76
2022/03/15 06:13:29;;;;;;;8.73;6.50;;;;;;;;;;5050394;28;20212;-76
2022/03/15 06:15:57;;;;;;;8.47;5.30;;;;;;;;;;5046756;28;20197;-75
2022/03/15 06:18:24;;;;;;;10.00;8.07;;;;;;;;;;5045277;28;20291;-75
2022/03/15 06:20:51;;;;;;;8.73;7.83;;;;;;;;;;5049092;28;20189;-75
2022/03/15 06:23:24;;;;;;;8.70;6.73;;;;;;;;;;5050827;28;20201;-80
2022/03/15 06:25:51;;;;;;;6.87;6.17;;;;;;;;;;5048603;28;20198;-76
2022/03/15 06:28:18;;;;;;;10.30;6.80;;;;;;;;;;5047207;28;20320;-76
2022/03/15 06:30:45;;;;;;;12.03;8.50;;;;;;;;;;5048222;28;20648;-77
2022/03/15 06:33:13;;;;;;;11.13;8.17;;;;;;;;;;5048392;28;20197;-76
2022/03/15 06:35:42;;;;;;;10.67;5.83;;;;;;;;;;5046544;28;20201;-77
2022/03/15 06:38:10;;;;;;;9.43;6.00;;;;;;;;;;5045980;28;20224;-79
2022/03/15 06:40:41;;;;;;;15.33;6.37;;;;;;;;;;5053363;28;20247;-81
2022/03/15 06:43:13;;;;;;;12.90;5.57;;;;;;;;;;5047726;28;20197;-77
2022/03/15 06:45:41;;;;;;;9.00;5.57;;;;;;;;;;5047373;28;20227;-77
2022/03/15 06:48:08;;;;;;;9.10;4.83;;;;;;;;;;5045007;28;20214;-77
2022/03/15 06:50:36;;;;;;;8.17;5.13;;;;;;;;;;5048176;28;20300;-77
2022/03/15 06:53:04;;;;;;;10.93;6.00;;;;;;;;;;5049939;28;20204;-77
2022/03/15 06:55:31;;;;;;;7.80;5.17;;;;;;;;;;5048423;28;20200;-77
2022/03/15 06:57:59;;;;;;;6.47;5.60;;;;;;;;;;5048031;28;20217;-77
2022/03/15 07:00:26;;;;;;;13.37;6.47;;;;;;;;;;5048629;28;20280;-77
2022/03/15 07:02:54;;;;;;;10.13;6.20;;;;;;;;;;5045425;28;20638;-77
2022/03/15 07:05:21;;;;;;;9.40;5.83;;;;;;;;;;5046947;28;20368;-77
2022/03/15 07:07:48;;;;;;;7.83;5.87;;;;;;;;;;5049466;28;20305;-77
2022/03/15 07:10:17;;;;;;;7.57;5.20;;;;;;;;;;5046231;28;20229;-77
2022/03/15 07:12:45;;;;;;;9.43;6.97;;;;;;;;;;5048214;28;20255;-76
2022/03/15 07:15:16;;;;;;;9.27;6.80;;;;;;;;;;5046673;28;20206;-77
2022/03/15 07:17:49;;;;;;;7.20;5.90;;;;;;;;;;5047209;28;20252;-76
2022/03/15 07:20:17;;;;;;;8.83;5.80;;;;;;;;;;5048317;28;20255;-77
2022/03/15 07:22:44;;;;;;;9.30;6.10;;;;;;;;;;5052508;28;20304;-77
2022/03/15 07:25:11;;;;;;;8.57;5.40;;;;;;;;;;5054799;28;20243;-76
2022/03/15 07:27:39;;;;;;;12.10;6.70;;;;;;;;;;5054280;28;20260;-76
2022/03/15 07:30:06;;;;;;;9.00;5.67;;;;;;;;;;5054158;28;20217;-77
2022/03/15 07:32:35;;;;;;;8.77;6.23;;;;;;;;;;5054794;28;20232;-77
2022/03/15 07:35:03;;;;;;;7.70;5.63;;;;;;;;;;5054424;28;20247;-77
2022/03/15 07:37:30;;;;;;;8.17;6.30;;;;;;;;;;5054115;28;20228;-76
2022/03/15 07:39:57;;;;;;;7.77;5.80;;;;;;;;;;5049425;28;20193;-77
2022/03/15 07:42:25;;;;;;;7.13;5.87;;;;;;;;;;5054324;28;20201;-77
2022/03/15 07:44:52;;;;;;;9.13;5.77;;;;;;;;;;5054225;28;20213;-77
2022/03/15 07:47:20;;;;;;;7.17;5.73;;;;;;;;;;5053114;28;20308;-77
2022/03/15 07:49:50;;;;;;;7.80;5.47;;;;;;;;;;5053702;28;20315;-77
2022/03/15 07:52:18;;;;;;;7.77;5.67;;;;;;;;;;5054723;28;20201;-77
2022/03/15 07:54:46;;;;;;;8.07;5.97;;;;;;;;;;5053763;28;20292;-77
2022/03/15 07:57:14;;;;;;;11.07;7.53;;;;;;;;;;5056959;28;20205;-81
2022/03/15 07:59:42;;;;;;;9.97;6.67;;;;;;;;;;5057892;28;20197;-80
2022/03/15 08:02:10;;;;;;;7.73;5.50;;;;;;;;;;5054609;28;20189;-77
2022/03/15 08:04:37;;;;;;;9.00;5.47;;;;;;;;;;5054418;28;20278;-77
2022/03/15 08:07:06;;;;;;;9.27;6.23;;;;;;;;;;5053427;28;20205;-77
2022/03/15 08:09:33;;;;;;;8.40;5.50;;;;;;;;;;5053800;28;20294;-77
2022/03/15 08:12:00;;;;;;;8.17;5.20;;;;;;;;;;5054450;28;20213;-77
2022/03/15 08:14:27;;;;;;;7.03;5.80;;;;;;;;;;5053625;28;20198;-77
2022/03/15 08:16:55;;;;;;;8.40;5.40;;;;;;;;;;5052695;28;20279;-77
2022/03/15 08:19:22;;;;;;;6.80;5.07;;;;;;;;;;5053098;28;20213;-77
2022/03/15 08:21:49;;;;;;;8.93;5.03;;;;;;;;;;5053402;28;20304;-77
2022/03/15 08:24:19;;;;;;;6.63;5.00;;;;;;;;;;5052675;28;20233;-77
2022/03/15 08:26:46;;;;;;;9.53;5.63;;;;;;;;;;5054334;28;20212;-76
2022/03/15 08:29:14;;;;;;;9.80;5.40;;;;;;;;;;5054488;28;20260;-77
2022/03/15 08:31:41;;;;;;;7.57;5.67;;;;;;;;;;5054426;28;20194;-77
2022/03/15 08:34:08;;;;;;;5.10;4.60;;;;;;;;;;5053175;28;20212;-77
2022/03/15 08:36:36;;;;;;;8.30;5.00;;;;;;;;;;5053693;28;20273;-75
2022/03/15 08:39:04;;;;;;;5.80;4.50;;;;;;;;;;5053469;28;20339;-77
2022/03/15 08:41:34;;;;;;;9.83;4.97;;;;;;;;;;5053908;28;20201;-76
2022/03/15 08:44:02;;;;;;;7.97;5.30;;;;;;;;;;5054409;28;20209;-77
2022/03/15 08:46:29;;;;;;;7.50;4.90;;;;;;;;;;5054402;28;20215;-75
2022/03/15 08:48:56;;;;;;;7.47;4.87;;;;;;;;;;5053409;28;20248;-77
2022/03/15 08:51:23;;;;;;;9.23;4.90;;;;;;;;;;5051456;28;20221;-77
2022/03/15 08:53:50;;;;;;;9.13;5.37;;;;;;;;;;5047386;28;20296;-77
2022/03/15 08:56:18;;;;;;;6.43;4.73;;;;;;;;;;5046519;28;20292;-77
2022/03/15 08:58:46;;;;;;;8.20;4.50;;;;;;;;;;5053106;28;20221;-77
2022/03/15 09:01:15;;;;;;;6.33;4.43;;;;;;;;;;5050863;28;20194;-77
2022/03/15 09:03:43;;;;;;;9.87;4.73;;;;;;;;;;5053463;28;20299;-77
2022/03/15 09:06:10;;;;;;;5.40;3.80;;;;;;;;;;5055167;28;20244;-77
2022/03/15 09:08:37;;;;;;;5.93;3.90;;;;;;;;;;5053461;28;20287;-77
2022/03/15 09:11:05;;;;;;;6.93;4.20;;;;;;;;;;5053512;28;20296;-77
2022/03/15 09:13:32;;;;;;;6.20;4.20;;;;;;;;;;5053743;28;20209;-77
2022/03/15 09:16:01;;;;;;;5.87;4.03;;;;;;;;;;5053431;28;20209;-77
2022/03/15 09:18:28;;;;;;;8.80;4.40;;;;;;;;;;5052680;28;20337;-77
2022/03/15 09:20:56;;;;;;;5.57;4.00;;;;;;;;;;5053253;28;20212;-77
2022/03/15 09:23:23;;;;;;;5.90;3.60;;;;;;;;;;5052899;28;20300;-76
2022/03/15 09:25:50;;;;;;;4.30;3.23;;;;;;;;;;5053024;28;20408;-76
2022/03/15 09:28:18;;;;;;;5.13;2.90;;;;;;;;;;5073679;22;20239;-74
2022/03/15 09:30:45;;;;;;;3.73;2.97;;;;;;;;;;5072677;28;20277;-74
2022/03/15 09:33:14;;;;;;;7.17;3.70;;;;;;;;;;5072274;28;20212;-74
2022/03/15 09:35:42;;;;;;;5.73;2.97;;;;;;;;;;5072472;28;20208;-76
2022/03/15 09:38:09;;;;;;;5.50;2.90;;;;;;;;;;5071673;28;20246;-74
2022/03/15 09:40:37;;;;;;;5.77;2.57;;;;;;;;;;5072720;28;20295;-74
2022/03/15 09:43:06;;;;;;;10.03;4.00;;;;;;;;;;5072475;28;20228;-74
2022/03/15 09:45:34;;;;;;;7.60;3.40;;;;;;;;;;5072205;28;20239;-74
2022/03/15 09:48:05;;;;;;;6.17;3.40;;;;;;;;;;5071942;28;20266;-76
2022/03/15 09:50:34;;;;;;;9.13;3.50;;;;;;;;;;5072044;28;20220;-76
2022/03/15 09:53:01;;;;;;;4.70;3.10;;;;;;;;;;5071932;28;20211;-74
2022/03/15 09:55:31;;;;;;;3.87;3.40;;;;;;;;;;5072476;28;20199;-74
2022/03/15 09:57:58;;;;;;;5.47;4.00;;;;;;;;;;5071966;28;20231;-74
2022/03/15 10:00:26;;;;;;;4.90;3.23;;;;;;;;;;5070418;28;20189;-75
2022/03/15 10:02:54;;;;;;;4.17;2.87;;;;;;;;;;5070224;28;20273;-74
2022/03/15 10:05:24;;;;;;;4.87;3.07;;;;;;;;;;5071218;28;20196;-74
2022/03/15 10:07:54;;;;;;;3.97;3.10;;;;;;;;;;5071211;28;20283;-74
2022/03/15 10:10:22;;;;;;;5.43;3.30;;;;;;;;;;5071696;28;20231;-74
2022/03/15 10:12:49;;;;;;;4.33;3.30;;;;;;;;;;5071821;28;20212;-74
2022/03/15 10:15:18;;;;;;;3.80;3.40;;;;;;;;;;5071236;28;20251;-74
2022/03/15 10:17:46;;;;;;;5.87;3.13;;;;;;;;;;5070792;28;20232;-74
2022/03/15 10:20:15;;;;;;;4.97;3.67;;;;;;;;;;5071015;28;20254;-76
2022/03/15 10:22:51;;;;;;;4.00;3.00;;;;;;;;;;5071440;28;20274;-74
2022/03/15 10:25:22;;;;;;;3.07;2.77;;;;;;;;;;5070335;28;20197;-74
2022/03/15 10:27:51;;;;;;;6.00;2.90;;;;;;;;;;5065860;28;20232;-74
2022/03/15 10:30:18;;;;;;;5.57;3.37;;;;;;;;;;5074212;28;20234;-74
2022/03/15 10:32:45;;;;;;;5.13;3.30;;;;;;;;;;5072841;28;20212;-74
2022/03/15 10:35:13;;;;;;;4.20;2.97;;;;;;;;;;5082870;28;20204;-74
2022/03/15 10:37:42;;;;;;;5.43;3.43;;;;;;;;;;5080915;28;20276;-80
2022/03/15 10:40:09;;;;;;;4.90;3.47;;;;;;;;;;5072160;28;20228;-81
2022/03/15 10:42:44;;;;;;;4.30;2.90;;;;;;;;;;5069722;28;20255;-78
2022/03/15 10:45:18;;;;;;;3.57;2.90;;;;;;;;;;5071245;28;20200;-75
2022/03/15 10:47:50;;;;;;;3.67;3.33;;;;;;;;;;5072872;28;20255;-75
2022/03/15 10:50:20;;;;;;;4.43;3.27;;;;;;;;;;5070750;28;20335;-75
2022/03/15 10:52:48;;;;;;;3.50;3.20;;;;;;;;;;5067392;28;20196;-75
2022/03/15 10:55:16;;;;;;;5.20;3.40;;;;;;;;;;5072113;28;20215;-75
2022/03/15 10:57:50;;;;;;;3.80;3.47;;;;;;;;;;5071663;28;20231;-75
2022/03/15 11:00:18;;;;;;;4.63;3.60;;;;;;;;;;5075394;28;20371;-75
2022/03/15 11:02:45;;;;;;;5.50;3.33;;;;;;;;;;5070231;28;20238;-75
2022/03/15 11:05:25;;;;;;;6.13;3.87;;;;;;;;;;5075800;28;20208;-75
2022/03/15 11:07:55;;;;;;;5.73;4.40;;;;;;;;;;5092580;22;20258;-76
2022/03/15 11:10:22;;;;;;;6.77;4.53;;;;;;;;;;5075966;28;20262;-75
2022/03/15 11:13:02;;;;;;;7.90;5.77;;;;;;;;;;5075165;28;20201;-77
2022/03/15 11:15:30;;;;;;;8.97;6.50;;;;;;;;;;5073450;28;20230;-75
2022/03/15 11:18:04;;;;;;;7.40;6.13;;;;;;;;;;5074851;28;20258;-75
2022/03/15 11:20:37;;;;;;;7.13;6.43;;;;;;;;;;5072732;28;20287;-75
2022/03/15 11:23:05;;;;;;;9.73;7.10;;;;;;;;;;5076014;28;20201;-75
2022/03/15 11:25:35;;;;;;;8.93;7.00;;;;;;;;;;5074119;28;20205;-75
2022/03/15 11:28:05;;;;;;;9.67;6.97;;;;;;;;;;5072844;28;20231;-75
2022/03/15 11:30:32;;;;;;;7.70;6.90;;;;;;;;;;5074217;28;20562;-76
2022/03/15 11:33:01;;;;;;;7.30;5.93;;;;;;;;;;5074858;28;20197;-75
2022/03/15 11:35:31;;;;;;;10.40;7.10;;;;;;;;;;5075993;28;20283;-75
2022/03/15 11:37:59;;;;;;;10.53;8.93;;;;;;;;;;5074113;28;20228;-76
2022/03/15 11:40:26;;;;;;;8.27;6.87;;;;;;;;;;5074367;28;20205;-75
2022/03/15 11:42:56;;;;;;;9.13;7.13;;;;;;;;;;5075114;28;20251;-75
2022/03/15 11:45:26;;;;;;;8.67;7.27;;;;;;;;;;5074109;28;20207;-75
2022/03/15 11:47:59;;;;;;;10.27;7.80;;;;;;;;;;5074128;28;20226;-75
2022/03/15 11:50:29;;;;;;;8.53;7.33;;;;;;;;;;5077138;28;20205;-77
2022/03/15 11:53:05;;;;;;;10.20;7.63;;;;;;;;;;5078667;28;20253;-77
2022/03/15 11:55:36;;;;;;;9.03;7.33;;;;;;;;;;5076362;28;20291;-76
2022/03/15 11:58:07;;;;;;;8.23;6.80;;;;;;;;;;5075971;28;20227;-76
2022/03/15 12:00:38;;;;;;;7.90;6.40;;;;;;;;;;5076064;28;20209;-76
2022/03/15 12:03:07;;;;;;;10.70;6.83;;;;;;;;;;5074307;28;20205;-76
2022/03/15 12:05:42;;;;;;;8.60;6.10;;;;;;;;;;5074540;28;20211;-76
2022/03/15 12:08:13;;;;;;;7.23;5.90;;;;;;;;;;5071087;28;20256;-78
2022/03/15 12:10:41;;;;;;;9.37;6.10;;;;;;;;;;5073650;28;20231;-79
2022/03/15 12:13:11;;;;;;;6.93;5.67;;;;;;;;;;5075062;28;20211;-80
2022/03/15 12:15:42;;;;;;;7.03;5.47;;;;;;;;;;5071958;28;20291;-77
2022/03/15 12:20:59;;;;;;;8.53;6.27;;;;;;;;;;5065695;28;20189;-77
2022/03/15 12:23:28;;;;;;;7.40;6.17;;;;;;;;;;5073668;28;20219;-76
2022/03/15 12:25:55;;;;;;;8.13;5.67;;;;;;;;;;5074924;28;20233;-77
2022/03/15 12:28:30;;;;;;;8.17;6.00;;;;;;;;;;5075486;28;20334;-78
2022/03/15 12:31:06;;;;;;;9.30;6.70;;;;;;;;;;5072939;28;20247;-76
2022/03/15 12:33:34;;;;;;;8.33;6.23;;;;;;;;;;5077794;28;20295;-81
2022/03/15 12:36:03;;;;;;;6.93;6.23;;;;;;;;;;5076443;28;20572;-88
2022/03/15 12:38:35;;;;;;;8.53;6.10;;;;;;;;;;5074485;28;20307;-77
2022/03/15 12:41:02;;;;;;;9.10;6.50;;;;;;;;;;5075027;28;20205;-76
2022/03/15 12:43:30;;;;;;;7.00;6.30;;;;;;;;;;5074795;28;20215;-77
2022/03/15 12:46:00;;;;;;;7.73;5.80;;;;;;;;;;5069927;28;20205;-77
2022/03/15 12:48:34;;;;;;;7.70;6.30;;;;;;;;;;5074519;28;20227;-78
2022/03/15 12:51:09;;;;;;;7.50;6.20;;;;;;;;;;5071553;28;20213;-78
2022/03/15 12:53:38;;;;;;;6.87;5.53;;;;;;;;;;5074489;28;20220;-80
2022/03/15 12:56:05;;;;;;;5.80;5.20;;;;;;;;;;5072622;28;20255;-78
2022/03/15 12:58:34;;;;;;;5.83;4.90;;;;;;;;;;5072645;28;20274;-77
2022/03/15 13:01:01;;;;;;;5.23;4.73;;;;;;;;;;5078239;28;20201;-79
2022/03/15 13:03:29;;;;;;;8.67;4.73;;;;;;;;;;5075366;28;20279;-80
2022/03/15 13:05:58;;;;;;;5.87;4.43;;;;;;;;;;5078884;28;20219;-77
2022/03/15 13:08:25;;;;;;;6.40;4.60;;;;;;;;;;5071355;28;20287;-76
2022/03/15 13:10:53;;;;;;;5.20;4.67;;;;;;;;;;5062365;28;20673;-77
2022/03/15 13:13:30;;;;;;;5.57;4.87;;;;;;;;;;5070013;28;20235;-77
2022/03/15 13:15:59;;;;;;;5.10;4.60;;;;;;;;;;5067714;28;20235;-77
2022/03/15 13:18:27;;;;;;;5.23;4.53;;;;;;;;;;5072367;28;20278;-76
2022/03/15 13:21:01;;;;;;;6.03;5.07;;;;;;;;;;5072015;28;20283;-78
2022/03/15 13:23:29;;;;;;;6.47;5.13;;;;;;;;;;5073856;28;20204;-77
2022/03/15 13:26:01;;;;;;;5.87;5.27;;;;;;;;;;5071849;28;20232;-76
2022/03/15 13:28:30;;;;;;;6.67;4.97;;;;;;;;;;5072010;28;20282;-77
2022/03/15 13:30:59;;;;;;;7.33;5.10;;;;;;;;;;5072147;28;20253;-76
2022/03/15 13:33:27;;;;;;;6.47;4.90;;;;;;;;;;5073076;28;20204;-76
2022/03/15 13:36:00;;;;;;;6.07;5.03;;;;;;;;;;5073107;28;20283;-76
2022/03/15 13:38:29;;;;;;;6.73;5.00;;;;;;;;;;5069930;28;20216;-81
2022/03/15 13:40:57;;;;;;;5.57;5.07;;;;;;;;;;5074783;28;20209;-77
2022/03/15 13:43:24;;;;;;;6.53;4.97;;;;;;;;;;5072317;28;20281;-76
2022/03/15 13:45:51;;;;;;;5.67;5.17;;;;;;;;;;5073911;28;20204;-76
2022/03/15 13:48:29;;;;;;;6.93;5.23;;;;;;;;;;5075280;28;20315;-77
2022/03/15 13:51:06;;;;;;;7.93;5.83;;;;;;;;;;5075389;28;20207;-77
2022/03/15 13:53:34;;;;;;;5.83;5.23;;;;;;;;;;5082480;28;20234;-77
2022/03/15 13:56:26;;;;;;;7.67;5.53;;;;;;;;;;5078637;28;20199;-79
2022/03/15 13:59:00;;;;;;;5.93;5.33;;;;;;;;;;5059931;28;20288;-79
2022/03/15 14:01:34;;;;;;;7.23;5.23;;;;;;;;;;5078597;28;20196;-80
2022/03/15 14:04:04;;;;;;;7.67;6.27;;;;;;;;;;5075461;28;20209;-78
2022/03/15 14:06:39;;;;;;;8.43;6.30;;;;;;;;;;5080336;28;20200;-81
2022/03/15 14:12:23;;;;;;;6.20;5.60;;;;;;;;;;5051484;28;20238;-78
2022/03/15 14:14:53;;;;;;;7.23;5.40;;;;;;;;;;5076342;28;20200;-78
2022/03/15 14:17:22;;;;;;;5.47;4.93;;;;;;;;;;5074913;28;20196;-78
2022/03/15 14:19:55;;;;;;;5.47;4.77;;;;;;;;;;5074410;28;20232;-78
2022/03/15 14:22:25;;;;;;;5.13;4.60;;;;;;;;;;5075918;28;20231;-78
2022/03/15 14:24:57;;;;;;;4.83;4.33;;;;;;;;;;5075335;28;20254;-78
2022/03/15 14:27:27;;;;;;;4.87;4.00;;;;;;;;;;5073765;28;20465;-78
2022/03/15 14:29:58;;;;;;;5.27;4.77;;;;;;;;;;5073946;28;20211;-77
2022/03/15 14:32:29;;;;;;;5.00;4.50;;;;;;;;;;5072922;28;20224;-78
2022/03/15 14:35:02;;;;;;;4.50;4.07;;;;;;;;;;5077261;28;20200;-78
2022/03/15 14:37:34;;;;;;;5.70;4.03;;;;;;;;;;5077317;28;20204;-77
2022/03/15 14:40:03;;;;;;;4.70;4.20;;;;;;;;;;5074660;28;20216;-78
2022/03/15 14:42:32;;;;;;;5.20;4.70;;;;;;;;;;5074481;28;20204;-78
2022/03/15 14:45:08;;;;;;;5.10;4.50;;;;;;;;;;5074822;28;20286;-78
2022/03/15 14:47:36;;;;;;;4.93;4.53;;;;;;;;;;5070708;28;20196;-78
2022/03/15 14:50:06;;;;;;;4.63;4.17;;;;;;;;;;5074661;28;20291;-77
2022/03/15 14:52:34;;;;;;;5.63;4.43;;;;;;;;;;5073250;28;20228;-77
2022/03/15 14:55:02;;;;;;;4.67;4.10;;;;;;;;;;5073249;28;20230;-78
2022/03/15 14:57:30;;;;;;;5.07;4.07;;;;;;;;;;5071378;28;20220;-77